createdAt,value
2019-02-24T00:01:32.920Z,6.33
2019-02-24T00:04:03.425Z,6.97
2019-02-24T00:06:33.876Z,8.20
2019-02-24T00:09:04.706Z,7.33
2019-02-24T00:11:35.159Z,8.63
2019-02-24T00:14:05.714Z,8.17
2019-02-24T00:16:36.216Z,6.73
2019-02-24T00:19:07.842Z,7.00
2019-02-24T00:21:38.331Z,9.10
2019-02-24T00:24:08.832Z,6.10
2019-02-24T00:26:39.288Z,6.93
2019-02-24T00:29:09.790Z,8.83
2019-02-24T00:31:40.294Z,7.30
2019-02-24T00:34:13.815Z,7.13
2019-02-24T00:36:44.327Z,7.37
2019-02-24T00:39:14.821Z,7.30
2019-02-24T00:41:45.323Z,6.33
2019-02-24T00:44:15.794Z,6.87
2019-02-24T00:46:46.372Z,8.50
2019-02-24T00:49:16.838Z,8.97
2019-02-24T00:51:47.329Z,7.00
2019-02-24T00:54:17.793Z,7.10
2019-02-24T00:56:48.289Z,6.17
2019-02-24T00:59:18.747Z,6.63
2019-02-24T01:01:49.236Z,6.97
2019-02-24T01:04:19.735Z,6.37
2019-02-24T01:06:50.238Z,6.93
2019-02-24T01:09:20.728Z,6.07
2019-02-24T01:11:51.224Z,6.00
2019-02-24T01:14:21.694Z,10.77
2019-02-24T01:16:52.198Z,9.20
2019-02-24T01:19:22.685Z,9.70
2019-02-24T01:21:54.587Z,6.87
2019-02-24T01:24:25.022Z,10.70
2019-02-24T01:26:55.530Z,6.43
2019-02-24T01:29:26.007Z,7.63
2019-02-24T01:31:56.468Z,8.30
2019-02-24T01:34:26.971Z,4.33
2019-02-24T01:36:57.434Z,4.53
2019-02-24T01:39:27.944Z,3.63
2019-02-24T01:41:58.412Z,4.87
2019-02-24T01:44:28.901Z,7.47
2019-02-24T01:46:59.399Z,4.03
2019-02-24T01:49:29.853Z,4.77
2019-02-24T01:52:00.552Z,4.30
2019-02-24T01:54:31.000Z,7.77
2019-02-24T01:57:01.494Z,5.03
2019-02-24T01:59:31.956Z,5.50
2019-02-24T02:02:02.456Z,6.00
2019-02-24T02:04:32.954Z,5.47
2019-02-24T02:07:03.412Z,6.87
2019-02-24T02:09:33.906Z,6.37
2019-02-24T02:12:04.363Z,5.83
2019-02-24T02:14:34.875Z,7.62
2019-02-24T02:17:05.424Z,5.20
2019-02-24T02:19:35.881Z,4.77
2019-02-24T02:22:06.395Z,5.15
2019-02-24T02:24:36.860Z,5.80
2019-02-24T02:27:07.338Z,5.40
2019-02-24T02:29:37.833Z,4.77
2019-02-24T02:32:08.337Z,6.07
2019-02-24T02:34:38.815Z,4.60
2019-02-24T02:37:09.273Z,5.30
2019-02-24T02:39:39.810Z,4.90
2019-02-24T02:42:10.259Z,5.60
2019-02-24T02:44:40.768Z,6.80
2019-02-24T02:47:11.236Z,5.12
2019-02-24T02:49:41.732Z,4.50
2019-02-24T02:52:12.238Z,6.25
2019-02-24T02:54:42.744Z,5.08
2019-02-24T02:57:13.205Z,5.05
2019-02-24T02:59:43.698Z,5.22
2019-02-24T03:02:23.828Z,5.25
2019-02-24T03:04:46.345Z,4.90
2019-02-24T03:07:24.408Z,6.30
2019-02-24T03:09:54.919Z,5.60
2019-02-24T03:12:25.440Z,6.62
2019-02-24T03:14:55.951Z,6.47
2019-02-24T03:17:26.604Z,9.48
2019-02-24T03:19:57.070Z,6.62
2019-02-24T03:22:27.670Z,8.30
2019-02-24T03:24:58.142Z,8.20
2019-02-24T03:27:28.664Z,15.90
2019-02-24T03:29:59.174Z,19.12
2019-02-24T03:32:29.678Z,10.95
2019-02-24T03:35:00.298Z,14.23
2019-02-24T03:37:30.750Z,18.75
2019-02-24T03:40:01.362Z,13.20
2019-02-24T03:42:31.835Z,14.53
2019-02-24T03:45:02.357Z,12.15
2019-02-24T03:47:32.877Z,13.20
2019-02-24T03:50:03.414Z,16.15
2019-02-24T03:52:33.870Z,16.05
2019-02-24T03:55:04.728Z,14.15
2019-02-24T03:57:35.339Z,15.43
2019-02-24T04:00:06.231Z,14.75
2019-02-24T04:02:36.741Z,11.40
2019-02-24T04:05:07.427Z,13.22
2019-02-24T04:07:37.925Z,11.25
2019-02-24T04:10:08.540Z,11.93
2019-02-24T04:12:39.052Z,11.68
2019-02-24T04:15:09.571Z,13.95
2019-02-24T04:17:40.109Z,18.92
2019-02-24T04:20:10.629Z,11.12
2019-02-24T04:22:41.151Z,11.97
2019-02-24T04:25:11.648Z,11.08
2019-02-24T04:27:42.253Z,10.35
2019-02-24T04:30:12.807Z,12.18
2019-02-24T04:32:43.314Z,12.23
2019-02-24T04:35:13.870Z,14.07
2019-02-24T04:37:44.397Z,12.00
2019-02-24T04:40:14.861Z,12.82
2019-02-24T04:42:45.388Z,12.53
2019-02-24T04:45:15.897Z,11.95
2019-02-24T04:47:46.376Z,12.28
2019-02-24T04:50:16.890Z,13.62
2019-02-24T04:52:47.401Z,11.95
2019-02-24T04:55:17.873Z,11.88
2019-02-24T04:57:48.397Z,12.75
2019-02-24T05:00:18.868Z,12.20
2019-02-24T05:02:49.386Z,10.70
2019-02-24T05:05:19.856Z,15.63
2019-02-24T05:07:50.333Z,16.67
2019-02-24T05:10:20.967Z,13.60
2019-02-24T05:12:51.485Z,13.40
2019-02-24T05:15:21.959Z,12.20
2019-02-24T05:17:52.460Z,12.87
2019-02-24T05:20:22.944Z,13.80
2019-02-24T05:22:53.447Z,10.07
2019-02-24T05:25:23.964Z,10.43
2019-02-24T05:27:54.439Z,13.93
2019-02-24T05:30:24.938Z,10.83
2019-02-24T05:32:55.433Z,12.93
2019-02-24T05:35:25.907Z,15.55
2019-02-24T05:37:56.417Z,12.97
2019-02-24T05:40:26.979Z,12.13
2019-02-24T05:42:57.441Z,17.00
2019-02-24T05:45:28.004Z,13.13
2019-02-24T05:47:58.523Z,12.40
2019-02-24T05:50:29.041Z,20.02
2019-02-24T05:52:59.509Z,12.28
2019-02-24T05:55:30.002Z,12.30
2019-02-24T05:58:00.470Z,14.37
2019-02-24T06:00:30.977Z,15.63
2019-02-24T06:03:01.476Z,15.33
2019-02-24T06:05:31.947Z,15.37
2019-02-24T06:08:02.459Z,16.03
2019-02-24T06:10:32.941Z,16.67
2019-02-24T06:13:03.445Z,14.87
2019-02-24T06:15:33.909Z,17.67
2019-02-24T06:18:04.427Z,14.17
2019-02-24T06:20:34.892Z,14.60
2019-02-24T06:23:05.510Z,14.73
2019-02-24T06:25:36.025Z,14.20
2019-02-24T06:28:06.502Z,17.90
2019-02-24T06:30:36.995Z,13.93
2019-02-24T06:33:07.461Z,17.17
2019-02-24T06:35:38.021Z,13.37
2019-02-24T06:38:08.535Z,15.00
2019-02-24T06:40:38.999Z,14.97
2019-02-24T06:43:09.526Z,13.87
2019-02-24T06:45:39.987Z,18.63
2019-02-24T06:48:10.489Z,13.70
2019-02-24T06:50:58.787Z,11.67
2019-02-24T06:53:29.351Z,23.10
2019-02-24T06:55:59.822Z,13.27
2019-02-24T06:58:30.359Z,11.70
2019-02-24T07:01:00.823Z,14.07
2019-02-24T07:03:31.361Z,13.63
2019-02-24T07:06:01.814Z,8.60
2019-02-24T07:08:32.264Z,10.53
2019-02-24T07:11:02.760Z,9.93
2019-02-24T07:13:33.269Z,16.03
2019-02-24T07:16:03.781Z,11.63
2019-02-24T07:18:34.278Z,11.63
2019-02-24T07:21:04.848Z,11.77
2019-02-24T07:23:35.362Z,12.03
2019-02-24T07:26:05.834Z,16.00
2019-02-24T07:28:36.340Z,11.63
2019-02-24T07:31:06.803Z,14.07
2019-02-24T07:33:37.326Z,12.07
2019-02-24T07:36:07.806Z,12.47
2019-02-24T07:38:38.353Z,10.43
2019-02-24T07:41:08.823Z,13.77
2019-02-24T07:43:39.330Z,11.00
2019-02-24T07:46:09.799Z,11.73
2019-02-24T07:48:40.423Z,13.60
2019-02-24T07:51:12.376Z,12.90
2019-02-24T07:53:43.024Z,14.03
2019-02-24T07:56:13.532Z,13.47
2019-02-24T07:58:43.988Z,14.47
2019-02-24T08:01:14.515Z,15.83
2019-02-24T08:03:44.974Z,12.43
2019-02-24T08:06:15.485Z,13.57
2019-02-24T08:08:46.141Z,14.00
2019-02-24T08:11:16.653Z,12.37
2019-02-24T08:13:47.155Z,13.73
2019-02-24T08:16:17.665Z,18.03
2019-02-24T08:18:49.977Z,16.13
2019-02-24T08:21:20.297Z,15.20
2019-02-24T08:23:50.798Z,13.00
2019-02-24T08:26:21.307Z,13.77
2019-02-24T08:28:51.782Z,16.07
2019-02-24T08:31:22.299Z,13.93
2019-02-24T08:33:52.774Z,18.43
2019-02-24T08:36:23.241Z,18.70
2019-02-24T08:38:53.752Z,16.03
2019-02-24T08:41:24.236Z,16.20
2019-02-24T08:43:54.751Z,16.30
2019-02-24T08:46:25.221Z,16.27
2019-02-24T08:48:55.734Z,18.37
2019-02-24T08:51:26.205Z,13.93
2019-02-24T08:53:56.717Z,14.43
2019-02-24T08:56:27.186Z,12.23
2019-02-24T08:58:57.658Z,15.03
2019-02-24T09:01:28.175Z,12.53
2019-02-24T09:03:58.661Z,11.90
2019-02-24T09:06:29.148Z,11.47
2019-02-24T09:08:59.681Z,10.63
2019-02-24T09:11:30.136Z,13.57
2019-02-24T09:14:00.636Z,14.40
2019-02-24T09:16:31.118Z,17.43
2019-02-24T09:19:01.621Z,16.03
2019-02-24T09:21:32.089Z,24.17
2019-02-24T09:24:02.606Z,14.63
2019-02-24T09:26:33.067Z,11.90
2019-02-24T09:29:03.573Z,10.50
2019-02-24T09:31:34.188Z,13.27
2019-02-24T09:34:04.663Z,13.10
2019-02-24T09:36:35.178Z,12.60
2019-02-24T09:39:06.584Z,14.93
2019-02-24T09:41:37.091Z,12.10
2019-02-24T09:44:07.601Z,12.37
2019-02-24T09:46:38.084Z,11.37
2019-02-24T09:49:08.578Z,9.47
2019-02-24T09:51:39.038Z,10.57
2019-02-24T09:54:09.498Z,11.50
2019-02-24T09:56:40.037Z,9.87
2019-02-24T09:59:10.493Z,11.43
2019-02-24T10:01:41.018Z,12.43
2019-02-24T10:04:11.496Z,10.73
2019-02-24T10:06:41.971Z,10.33
2019-02-24T10:09:12.472Z,10.73
2019-02-24T10:11:42.936Z,11.17
2019-02-24T10:14:13.466Z,12.73
2019-02-24T10:16:43.930Z,14.70
2019-02-24T10:19:14.385Z,14.53
2019-02-24T10:21:44.889Z,14.70
2019-02-24T10:24:15.361Z,13.67
2019-02-24T10:26:45.873Z,11.37
2019-02-24T10:29:16.345Z,13.83
2019-02-24T10:31:46.818Z,12.93
2019-02-24T10:34:17.370Z,13.70
2019-02-24T10:36:47.886Z,14.80
2019-02-24T10:39:18.467Z,7.87
2019-02-24T10:41:48.931Z,6.90
2019-02-24T10:44:19.410Z,8.57
2019-02-24T10:46:49.927Z,5.37
2019-02-24T10:49:20.395Z,7.57
2019-02-24T10:51:50.868Z,5.30
2019-02-24T10:54:21.463Z,7.60
2019-02-24T10:56:51.948Z,8.73
2019-02-24T10:59:22.402Z,9.37
2019-02-24T11:01:52.889Z,5.33
2019-02-24T11:04:23.447Z,5.43
2019-02-24T11:06:53.947Z,4.07
2019-02-24T11:09:24.408Z,3.90
2019-02-24T11:11:54.915Z,5.93
2019-02-24T11:14:25.369Z,5.17
2019-02-24T11:16:55.812Z,5.03
2019-02-24T11:19:26.323Z,6.03
2019-02-24T11:21:56.900Z,4.17
2019-02-24T11:24:27.383Z,5.13
2019-02-24T11:26:57.870Z,5.03
2019-02-24T11:29:28.323Z,5.87
2019-02-24T11:31:58.872Z,4.60
2019-02-24T11:34:29.331Z,3.93
2019-02-24T11:36:59.844Z,5.70
2019-02-24T11:39:30.296Z,3.67
2019-02-24T11:42:00.903Z,3.90
2019-02-24T11:44:31.360Z,3.80
2019-02-24T11:47:01.827Z,4.23
2019-02-24T11:49:32.340Z,4.07
2019-02-24T11:52:04.067Z,4.43
2019-02-24T11:54:34.646Z,6.67
2019-02-24T11:57:05.113Z,5.13
2019-02-24T11:59:35.578Z,4.00
2019-02-24T12:02:06.069Z,4.57
2019-02-24T12:04:36.570Z,4.13
2019-02-24T12:07:07.066Z,4.43
2019-02-24T12:09:37.656Z,3.70
2019-02-24T12:12:08.243Z,4.07
2019-02-24T12:14:38.697Z,4.00
2019-02-24T12:17:09.212Z,4.20
2019-02-24T12:19:39.719Z,4.27
2019-02-24T12:22:10.207Z,4.10
2019-02-24T12:24:40.665Z,5.07
2019-02-24T12:27:11.156Z,4.40
2019-02-24T12:29:41.613Z,6.30
2019-02-24T12:32:12.124Z,4.40
2019-02-24T12:34:42.633Z,4.17
2019-02-24T12:37:13.148Z,4.60
2019-02-24T12:39:43.608Z,4.90
2019-02-24T12:42:14.072Z,4.20
2019-02-24T12:44:44.587Z,4.80
2019-02-24T12:47:15.042Z,5.03
2019-02-24T12:49:45.505Z,3.97
2019-02-24T12:52:16.007Z,4.30
2019-02-24T12:54:46.511Z,3.83
2019-02-24T12:57:17.158Z,4.47
2019-02-24T12:59:47.656Z,4.27
2019-02-24T13:02:18.359Z,4.90
2019-02-24T13:04:48.826Z,4.57
2019-02-24T13:07:19.271Z,4.47
2019-02-24T13:09:50.706Z,4.43
2019-02-24T13:12:21.214Z,3.77
2019-02-24T13:14:51.672Z,4.50
2019-02-24T13:17:22.186Z,4.73
2019-02-24T13:19:52.644Z,4.30
2019-02-24T13:22:23.145Z,4.07
2019-02-24T13:24:53.634Z,5.17
2019-02-24T13:27:24.085Z,4.70
2019-02-24T13:29:54.583Z,4.10
2019-02-24T13:32:25.026Z,4.27
2019-02-24T13:34:55.520Z,4.10
2019-02-24T13:37:26.007Z,4.07
2019-02-24T13:39:56.509Z,4.13
2019-02-24T13:42:26.965Z,4.90
2019-02-24T13:44:57.569Z,4.23
2019-02-24T13:47:28.073Z,4.67
2019-02-24T13:49:58.555Z,4.53
2019-02-24T13:52:29.060Z,5.33
2019-02-24T13:54:59.541Z,4.57
2019-02-24T13:57:30.032Z,4.40
2019-02-24T14:00:00.480Z,4.20
2019-02-24T14:02:30.968Z,3.50
2019-02-24T14:05:01.484Z,4.30
2019-02-24T14:07:32.096Z,4.03
2019-02-24T14:10:02.572Z,4.47
2019-02-24T14:12:33.025Z,4.87
2019-02-24T14:15:03.517Z,4.43
2019-02-24T14:17:33.974Z,4.53
2019-02-24T14:20:04.632Z,4.30
2019-02-24T14:22:35.082Z,4.13
2019-02-24T14:25:05.930Z,3.93
2019-02-24T14:27:36.426Z,4.47
2019-02-24T14:30:08.477Z,4.60
2019-02-24T14:32:38.938Z,4.27
2019-02-24T14:35:11.217Z,3.57
2019-02-24T14:37:41.663Z,3.97
2019-02-24T14:40:12.186Z,4.73
2019-02-24T14:42:42.697Z,4.67
2019-02-24T14:45:15.063Z,4.20
2019-02-24T14:47:45.533Z,4.13
2019-02-24T14:50:16.110Z,4.70
2019-02-24T14:52:46.607Z,4.40
2019-02-24T14:55:17.214Z,4.80
2019-02-24T14:57:47.679Z,4.90
2019-02-24T15:00:18.268Z,4.97
2019-02-24T15:02:48.721Z,4.33
2019-02-24T15:05:19.219Z,10.10
2019-02-24T15:07:49.767Z,4.00
2019-02-24T15:10:20.296Z,3.97
2019-02-24T15:12:50.755Z,4.10
2019-02-24T15:15:21.317Z,4.47
2019-02-24T15:17:51.767Z,4.53
2019-02-24T15:20:22.372Z,4.67
2019-02-24T15:22:52.876Z,4.47
2019-02-24T15:25:23.440Z,4.77
2019-02-24T15:27:53.924Z,4.67
2019-02-24T15:30:27.152Z,4.97
2019-02-24T15:32:57.629Z,4.97
2019-02-24T15:35:28.184Z,4.70
2019-02-24T15:37:58.642Z,5.07
2019-02-24T15:40:29.156Z,4.73
2019-02-24T15:42:59.724Z,5.43
2019-02-24T15:45:30.314Z,5.83
2019-02-24T15:48:00.918Z,6.10
2019-02-24T15:50:31.367Z,6.00
2019-02-24T15:53:01.871Z,5.67
2019-02-24T15:55:32.500Z,5.30
2019-02-24T15:58:02.965Z,5.37
2019-02-24T16:00:33.423Z,5.30
2019-02-24T16:03:03.932Z,5.17
2019-02-24T16:05:34.429Z,5.17
2019-02-24T16:08:04.981Z,5.10
2019-02-24T16:10:35.481Z,5.30
2019-02-24T16:13:06.074Z,4.70
2019-02-24T16:15:36.543Z,4.30
2019-02-24T16:18:07.150Z,4.53
2019-02-24T16:20:37.661Z,4.83
2019-02-24T16:23:08.173Z,5.20
2019-02-24T16:25:38.700Z,9.50
2019-02-24T16:28:09.167Z,5.47
2019-02-24T16:30:39.671Z,6.57
2019-02-24T16:33:10.874Z,6.30
2019-02-24T16:35:41.610Z,8.00
2019-02-24T16:38:12.076Z,10.63
2019-02-24T16:40:42.571Z,8.27
2019-02-24T16:43:13.042Z,11.50
2019-02-24T16:45:43.543Z,12.70
2019-02-24T16:48:14.008Z,11.97
2019-02-24T16:50:44.511Z,10.87
2019-02-24T16:53:15.026Z,14.10
2019-02-24T16:55:45.637Z,12.67
2019-02-24T16:58:16.112Z,13.00
2019-02-24T17:00:46.638Z,10.63
2019-02-24T17:03:19.794Z,11.57
2019-02-24T17:05:49.380Z,11.47
2019-02-24T17:08:19.863Z,12.47
2019-02-24T17:10:50.354Z,12.27
2019-02-24T17:13:20.869Z,12.43
2019-02-24T17:15:51.328Z,7.37
2019-02-24T17:18:21.823Z,6.67
2019-02-24T17:20:52.279Z,6.43
2019-02-24T17:23:22.787Z,6.10
2019-02-24T17:25:53.268Z,5.70
2019-02-24T17:28:23.738Z,6.47
2019-02-24T17:30:54.256Z,5.50
2019-02-24T17:33:29.966Z,5.33
2019-02-24T17:35:56.966Z,6.13
2019-02-24T17:38:27.464Z,10.80
2019-02-24T17:40:57.959Z,6.67
2019-02-24T17:43:28.506Z,7.03
2019-02-24T17:45:58.961Z,6.00
2019-02-24T17:48:29.460Z,5.53
2019-02-24T17:50:59.924Z,5.40
2019-02-24T17:53:30.421Z,6.23
2019-02-24T17:56:00.916Z,5.40
2019-02-24T17:58:31.424Z,6.73
2019-02-24T18:01:03.761Z,6.50
2019-02-24T18:03:39.491Z,7.80
2019-02-24T18:06:06.419Z,6.83
2019-02-24T18:08:36.887Z,10.47
2019-02-24T18:11:07.357Z,13.90
2019-02-24T18:13:37.867Z,12.87
2019-02-24T18:16:08.337Z,14.60
2019-02-24T18:18:38.953Z,14.87
2019-02-24T18:21:09.472Z,16.13
2019-02-24T18:23:39.946Z,14.50
2019-02-24T18:26:10.443Z,18.40
2019-02-24T18:28:40.915Z,14.73
2019-02-24T18:31:11.392Z,10.37
2019-02-24T18:33:48.113Z,10.37
2019-02-24T18:36:14.041Z,9.10
2019-02-24T18:38:44.504Z,8.67
2019-02-24T18:41:15.004Z,7.53
2019-02-24T18:43:45.491Z,7.90
2019-02-24T18:46:15.988Z,7.03
2019-02-24T18:48:46.484Z,6.93
2019-02-24T18:51:16.935Z,7.63
2019-02-24T18:53:47.548Z,8.00
2019-02-24T18:56:18.004Z,7.30
2019-02-24T18:58:48.464Z,6.57
2019-02-24T19:01:18.975Z,7.00
2019-02-24T19:03:57.378Z,7.30
2019-02-24T19:06:21.646Z,6.50
2019-02-24T19:08:52.157Z,7.10
2019-02-24T19:11:22.632Z,7.07
2019-02-24T19:13:53.123Z,8.47
2019-02-24T19:16:23.636Z,7.47
2019-02-24T19:18:54.088Z,6.40
2019-02-24T19:21:24.535Z,6.67
2019-02-24T19:23:55.023Z,7.63
2019-02-24T19:26:25.588Z,7.10
2019-02-24T19:28:56.043Z,6.73
2019-02-24T19:31:26.527Z,6.80
2019-02-24T19:33:57.087Z,7.10
2019-02-24T19:36:27.631Z,6.77
2019-02-24T19:38:58.137Z,7.00
2019-02-24T19:41:28.618Z,5.87
2019-02-24T19:43:59.065Z,6.53
2019-02-24T19:46:29.596Z,6.23
2019-02-24T19:49:00.052Z,6.70
2019-02-24T19:51:30.515Z,6.73
2019-02-24T19:54:01.009Z,6.13
2019-02-24T19:56:31.478Z,6.97
2019-02-24T19:59:01.964Z,6.93
2019-02-24T20:01:32.457Z,8.00
2019-02-24T20:04:02.962Z,7.57
2019-02-24T20:06:33.470Z,7.57
2019-02-24T20:09:05.801Z,9.47
2019-02-24T20:11:36.275Z,8.47
2019-02-24T20:14:06.813Z,8.77
2019-02-24T20:16:37.273Z,12.47
2019-02-24T20:19:07.726Z,8.00
2019-02-24T20:21:38.221Z,7.73
2019-02-24T20:24:08.715Z,8.73
2019-02-24T20:26:39.173Z,8.33
2019-02-24T20:29:09.672Z,7.90
2019-02-24T20:31:40.133Z,7.47
2019-02-24T20:34:11.932Z,7.93
2019-02-24T20:36:42.387Z,8.27
2019-02-24T20:39:13.121Z,8.77
2019-02-24T20:41:43.591Z,8.33
2019-02-24T20:44:14.199Z,8.60
2019-02-24T20:46:44.711Z,8.63
2019-02-24T20:49:15.165Z,8.60
2019-02-24T20:51:45.667Z,11.73
2019-02-24T20:54:16.116Z,7.70
2019-02-24T20:56:46.611Z,7.57
2019-02-24T20:59:17.125Z,9.13
2019-02-24T21:01:47.587Z,8.47
2019-02-24T21:04:18.047Z,8.70
2019-02-24T21:06:48.547Z,9.00
2019-02-24T21:09:19.011Z,8.60
2019-02-24T21:11:49.506Z,9.50
2019-02-24T21:14:20.004Z,7.03
2019-02-24T21:16:50.462Z,8.90
2019-02-24T21:19:20.961Z,7.07
2019-02-24T21:21:51.460Z,7.10
2019-02-24T21:24:21.952Z,6.40
2019-02-24T21:26:52.453Z,6.80
2019-02-24T21:29:22.912Z,7.20
2019-02-24T21:31:53.370Z,6.23
2019-02-24T21:34:23.870Z,6.40
2019-02-24T21:36:54.334Z,7.80
2019-02-24T21:39:24.828Z,6.53
2019-02-24T21:41:55.286Z,7.50
2019-02-24T21:44:25.788Z,7.13
2019-02-24T21:46:56.291Z,6.67
2019-02-24T21:49:26.793Z,6.20
2019-02-24T21:51:57.281Z,6.97
2019-02-24T21:54:27.733Z,6.80
2019-02-24T21:56:58.233Z,7.50
2019-02-24T21:59:36.764Z,7.43
2019-02-24T22:02:00.859Z,7.83
2019-02-24T22:04:31.356Z,7.73
2019-02-24T22:07:01.819Z,7.67
2019-02-24T22:09:32.348Z,7.37
2019-02-24T22:12:02.811Z,9.43
2019-02-24T22:14:33.268Z,7.17
2019-02-24T22:17:03.769Z,7.77
2019-02-24T22:19:34.228Z,8.13
2019-02-24T22:22:04.728Z,8.80
2019-02-24T22:24:35.231Z,8.87
2019-02-24T22:27:05.736Z,9.33
2019-02-24T22:29:36.593Z,8.70
2019-02-24T22:32:07.149Z,10.23
2019-02-24T22:34:37.651Z,9.40
2019-02-24T22:37:08.135Z,8.83
2019-02-24T22:39:38.628Z,9.80
2019-02-24T22:42:09.080Z,9.67
2019-02-24T22:44:39.542Z,9.70
2019-02-24T22:47:10.015Z,10.30
2019-02-24T22:49:40.508Z,11.10
2019-02-24T22:52:10.973Z,11.23
2019-02-24T22:54:41.464Z,10.40
2019-02-24T22:57:11.968Z,9.73
2019-02-24T22:59:42.426Z,12.00
2019-02-24T23:02:13.030Z,11.70
2019-02-24T23:04:43.532Z,10.67
2019-02-24T23:07:13.994Z,11.30
2019-02-24T23:09:44.497Z,10.13
2019-02-24T23:12:14.960Z,10.03
2019-02-24T23:14:45.759Z,9.43
2019-02-24T23:17:16.218Z,11.60
2019-02-24T23:19:46.732Z,11.10
2019-02-24T23:22:17.185Z,10.67
2019-02-24T23:24:47.656Z,10.63
2019-02-24T23:27:18.148Z,10.40
2019-02-24T23:29:48.649Z,10.87
2019-02-24T23:32:19.166Z,14.60
2019-02-24T23:34:49.672Z,16.63
2019-02-24T23:37:20.148Z,18.53
2019-02-24T23:39:50.686Z,18.67
2019-02-24T23:42:21.257Z,24.77
2019-02-24T23:44:51.872Z,26.37
2019-02-24T23:47:22.390Z,28.27
2019-02-24T23:49:52.898Z,28.27
2019-02-24T23:52:23.405Z,27.93
2019-02-24T23:54:53.971Z,24.90
2019-02-24T23:57:24.515Z,26.80
2019-02-24T23:59:54.989Z,25.13
